Time;durP1;ratioP1;P1;durP2;ratioP2;P2;SDS_P1;SDS_P2;PMS_P1;PMS_P2;Temp;Humidity;BMP_temperature;BMP_pressure;BME280_temperature;BME280_humidity;BME280_pressure;Samples;Min_cycle;Max_cycle;Signal;HPM_P1;HPM_P2
2023/02/14 00:01:09;;;;;;;8.20;6.20;;;;;;;3.28;75.49;100410.35;105757;1257;59570;-71
2023/02/14 00:03:37;;;;;;;6.80;5.50;;;;;;;3.29;75.48;100412.39;105971;1260;59538;-72
2023/02/14 00:06:09;;;;;;;9.00;6.20;;;;;;;3.29;75.49;100399.69;105847;1259;65892;-70
2023/02/14 00:08:38;;;;;;;8.00;5.60;;;;;;;3.30;75.44;100403.99;105688;1259;60005;-70
2023/02/14 00:11:05;;;;;;;7.40;5.90;;;;;;;3.31;75.58;100401.20;105922;1254;65759;-71
2023/02/14 00:13:32;;;;;;;6.70;5.60;;;;;;;3.30;75.49;100402.95;105781;1254;59825;-70
2023/02/14 00:15:58;;;;;;;7.90;5.70;;;;;;;3.29;75.47;100389.60;105753;1259;59565;-72
2023/02/14 00:21:16;;;;;;;6.60;5.50;;;;;;;3.31;75.58;100392.48;105679;1257;59818;-70
2023/02/14 00:23:43;;;;;;;7.20;5.50;;;;;;;3.31;75.58;100388.98;105830;1254;65347;-69
2023/02/14 00:26:13;;;;;;;6.40;5.20;;;;;;;3.32;75.55;100380.73;106081;1256;59599;-69
2023/02/14 00:28:41;;;;;;;8.10;5.40;;;;;;;3.33;75.54;100381.55;105802;1253;59730;-71
2023/02/14 00:31:08;;;;;;;6.30;5.20;;;;;;;3.34;75.55;100375.41;105847;1255;65794;-73
2023/02/14 00:33:35;;;;;;;5.70;4.90;;;;;;;3.34;75.48;100366.36;105915;1256;59671;-72
2023/02/14 00:36:03;;;;;;;5.80;5.00;;;;;;;3.36;75.45;100363.14;105795;1257;65559;-71
2023/02/14 00:38:35;;;;;;;7.00;4.90;;;;;;;3.37;75.38;100358.02;105743;1261;59630;-71
2023/02/14 00:41:02;;;;;;;5.40;4.50;;;;;;;3.37;75.33;100358.19;105910;1254;60207;-72
2023/02/14 00:43:29;;;;;;;5.40;4.50;;;;;;;3.38;75.34;100353.64;105809;1253;66229;-70
2023/02/14 00:45:56;;;;;;;5.90;5.00;;;;;;;3.39;75.24;100342.30;105805;1257;59602;-72
2023/02/14 00:48:24;;;;;;;6.00;4.90;;;;;;;3.40;75.17;100330.89;105728;1254;65561;-71
2023/02/14 00:50:50;;;;;;;7.00;4.90;;;;;;;3.42;75.06;100330.14;105629;1266;59564;-71
2023/02/14 00:53:17;;;;;;;5.40;4.40;;;;;;;3.43;75.04;100332.87;105806;1258;59719;-71
2023/02/14 00:55:45;;;;;;;6.40;4.80;;;;;;;3.43;75.03;100335.46;105732;1255;65888;-71
2023/02/14 00:58:12;;;;;;;5.60;4.60;;;;;;;3.44;75.01;100333.66;105852;1254;60316;-70
2023/02/14 01:00:39;;;;;;;5.80;4.60;;;;;;;3.46;74.94;100332.88;105815;1255;65374;-71
2023/02/14 01:03:07;;;;;;;5.00;4.50;;;;;;;3.47;74.90;100330.21;105738;1258;59530;-71
2023/02/14 01:05:34;;;;;;;5.50;4.60;;;;;;;3.48;74.85;100330.02;105831;1259;59644;-71
2023/02/14 01:08:03;;;;;;;5.40;4.50;;;;;;;3.48;74.73;100322.70;105836;1254;65632;-71
2023/02/14 01:10:30;;;;;;;5.00;4.40;;;;;;;3.48;74.78;100323.92;105854;1253;59863;-71
2023/02/14 01:12:59;;;;;;;4.90;4.30;;;;;;;3.49;74.75;100324.73;105842;1254;65477;-71
2023/02/14 01:15:27;;;;;;;5.70;4.70;;;;;;;3.49;74.63;100317.92;105667;1260;59757;-70
2023/02/14 01:17:59;;;;;;;6.50;4.60;;;;;;;3.49;74.59;100321.97;106051;1254;59731;-71
2023/02/14 01:20:27;;;;;;;6.50;4.60;;;;;;;3.48;74.65;100323.04;105865;1254;66085;-71
2023/02/14 01:22:53;;;;;;;5.90;4.60;;;;;;;3.49;74.61;100326.65;105698;1254;59757;-72
2023/02/14 01:25:20;;;;;;;4.80;4.30;;;;;;;3.50;74.59;100323.66;105654;1254;65568;-74
2023/02/14 01:27:48;;;;;;;5.20;4.50;;;;;;;3.51;74.57;100319.95;105796;1258;59961;-73
2023/02/14 01:30:15;;;;;;;5.80;4.80;;;;;;;3.52;74.52;100325.11;106799;1253;59280;-70
2023/02/14 01:32:41;;;;;;;5.20;4.50;;;;;;;3.52;74.52;100321.77;107442;1254;64608;-72
2023/02/14 01:35:16;;;;;;;5.50;4.60;;;;;;;3.52;74.43;100314.14;106333;1257;59989;-73
2023/02/14 01:37:47;;;;;;;5.40;4.30;;;;;;;3.53;74.43;100312.88;105803;1254;65565;-72
2023/02/14 01:40:14;;;;;;;6.10;4.60;;;;;;;3.54;74.40;100317.69;105756;1258;60526;-73
2023/02/14 01:42:42;;;;;;;7.90;5.20;;;;;;;3.54;74.39;100315.60;105759;1254;60465;-71
2023/02/14 01:45:17;;;;;;;5.70;4.80;;;;;;;3.54;74.33;100310.53;106298;1254;65614;-70
2023/02/14 01:47:45;;;;;;;53.40;38.30;;;;;;;3.53;74.29;100307.79;105720;1254;60557;-70
2023/02/14 01:50:21;;;;;;;32.30;25.00;;;;;;;3.53;74.33;100305.73;105783;1253;65572;-70
2023/02/14 01:52:56;;;;;;;32.10;24.90;;;;;;;3.53;74.32;100301.55;105633;1254;60536;-71
2023/02/14 01:55:25;;;;;;;19.40;15.90;;;;;;;3.54;74.30;100295.39;105746;1253;60596;-70
2023/02/14 01:58:16;;;;;;;23.50;18.40;;;;;;;3.55;74.32;100296.94;105931;1258;67013;-71
2023/02/14 02:00:56;;;;;;;18.00;15.10;;;;;;;3.55;74.31;100297.45;105509;1254;60583;-71
2023/02/14 02:03:38;;;;;;;25.20;21.60;;;;;;;3.55;74.26;100296.57;105800;1254;65303;-71
2023/02/14 02:06:27;;;;;;;16.70;13.30;;;;;;;3.54;74.28;100294.55;106201;1254;60607;-71
2023/02/14 02:09:04;;;;;;;7.00;6.00;;;;;;;3.53;74.29;100295.10;105841;1254;60342;-70
2023/02/14 02:11:31;;;;;;;6.80;5.80;;;;;;;3.52;74.32;100292.00;105818;1256;66680;-70
2023/02/14 02:14:03;;;;;;;6.00;4.60;;;;;;;3.54;74.25;100289.48;105887;1254;60451;-70
2023/02/14 02:16:54;;;;;;;5.40;4.50;;;;;;;3.55;74.19;100287.32;105802;1255;65564;-70
2023/02/14 02:19:21;;;;;;;5.50;4.40;;;;;;;3.55;74.23;100283.15;105847;1253;60430;-69
2023/02/14 02:21:54;;;;;;;5.50;4.80;;;;;;;3.54;74.24;100277.63;105559;1253;60547;-71
2023/02/14 02:24:23;;;;;;;6.60;5.00;;;;;;;3.54;74.20;100278.17;105783;1254;65695;-70
2023/02/14 02:26:56;;;;;;;8.20;7.40;;;;;;;3.54;74.19;100274.84;106050;1254;60537;-70
2023/02/14 02:29:39;;;;;;;5.60;4.60;;;;;;;3.55;74.14;100268.70;105873;1256;65568;-70
2023/02/14 02:32:38;;;;;;;6.60;4.20;;;;;;;3.55;74.15;100266.44;105850;1259;62251;-71
2023/02/14 02:35:15;;;;;;;5.80;4.50;;;;;;;3.53;74.18;100264.11;105610;1254;60791;-70
2023/02/14 02:37:45;;;;;;;4.80;4.30;;;;;;;3.53;74.13;100259.06;105612;1254;66644;-72
2023/02/14 02:40:30;;;;;;;6.50;5.30;;;;;;;3.53;74.08;100256.98;105719;1257;60504;-72
2023/02/14 02:43:14;;;;;;;4.80;4.20;;;;;;;3.53;74.14;100257.81;105781;1260;65500;-72
2023/02/14 02:49:07;;;;;;;5.80;4.60;;;;;;;3.53;74.07;100251.73;105838;1253;60441;-72
2023/02/14 02:54:30;;;;;;;6.50;4.60;;;;;;;3.55;74.08;100252.17;105679;1254;60482;-69
2023/02/14 02:56:58;;;;;;;4.20;3.30;;;;;;;3.56;74.00;100250.37;105852;1254;65513;-70
2023/02/14 02:59:30;;;;;;;5.60;4.30;;;;;;;3.56;73.96;100245.81;105765;1254;60467;-69
2023/02/14 03:02:24;;;;;;;5.60;4.50;;;;;;;3.56;73.93;100235.05;105843;1253;62122;-70
2023/02/14 03:04:54;;;;;;;6.50;4.90;;;;;;;3.56;73.94;100224.42;105761;1253;66843;-70
2023/02/14 03:07:34;;;;;;;;;;;;;;;3.55;73.85;100220.81;106010;1259;60371;-71
2023/02/14 03:10:11;;;;;;;5.20;4.30;;;;;;;3.55;73.85;100218.52;105727;1257;65391;-72
2023/02/14 03:12:57;;;;;;;5.20;4.40;;;;;;;3.56;73.81;100208.77;105688;1254;60531;-71
2023/02/14 03:15:51;;;;;;;5.00;4.30;;;;;;;3.56;73.80;100204.92;105824;1254;60429;-71
2023/02/14 03:18:28;;;;;;;6.60;4.50;;;;;;;3.56;73.70;100192.21;105823;1257;66666;-71
2023/02/14 03:21:09;;;;;;;6.50;4.70;;;;;;;3.56;73.73;100185.45;105786;1253;60454;-72
2023/02/14 03:23:44;;;;;;;7.40;4.50;;;;;;;3.54;73.74;100193.52;105651;1255;65347;-71
2023/02/14 03:26:21;;;;;;;6.20;4.70;;;;;;;3.54;73.68;100192.14;105782;1253;60891;-71
2023/02/14 03:28:53;;;;;;;5.10;4.30;;;;;;;3.55;73.67;100182.16;105702;1254;60482;-72
2023/02/14 03:31:28;;;;;;;4.90;4.20;;;;;;;3.55;73.64;100174.31;105881;1259;66567;-71
2023/02/14 03:33:59;;;;;;;4.70;3.90;;;;;;;3.52;73.63;100176.23;105960;1253;60450;-71
2023/02/14 03:36:41;;;;;;;5.70;4.30;;;;;;;3.51;73.68;100174.05;106084;1254;65316;-71
2023/02/14 03:39:15;;;;;;;9.10;7.10;;;;;;;3.50;73.65;100169.77;105552;1253;60546;-70
2023/02/14 03:41:56;;;;;;;7.30;5.60;;;;;;;3.49;73.67;100168.09;105858;1254;60419;-73
2023/02/14 03:44:24;;;;;;;6.70;4.40;;;;;;;3.47;73.75;100166.23;105646;1253;66772;-70
2023/02/14 03:46:53;;;;;;;8.50;6.50;;;;;;;3.46;73.80;100168.71;105573;1257;60532;-70
2023/02/14 03:49:22;;;;;;;9.00;7.70;;;;;;;3.47;73.77;100177.92;105876;1253;65519;-71
2023/02/14 03:51:50;;;;;;;8.90;5.60;;;;;;;3.48;73.80;100187.98;105675;1260;60566;-71
2023/02/14 03:54:16;;;;;;;5.00;4.50;;;;;;;3.48;73.80;100196.48;105665;1254;60455;-72
2023/02/14 03:56:46;;;;;;;6.70;4.90;;;;;;;3.49;73.78;100201.88;105615;1260;66776;-71
2023/02/14 03:59:14;;;;;;;5.10;4.20;;;;;;;3.49;73.77;100214.40;105867;1254;60451;-70
2023/02/14 04:01:52;;;;;;;5.20;4.50;;;;;;;3.48;73.82;100226.95;105713;1260;64433;-72
2023/02/14 04:04:21;;;;;;;5.50;4.20;;;;;;;3.48;73.95;100235.67;105769;1256;60482;-71
2023/02/14 04:06:48;;;;;;;5.80;4.40;;;;;;;3.43;74.07;100236.91;105706;1253;60562;-71
2023/02/14 04:09:15;;;;;;;4.60;4.10;;;;;;;3.41;74.21;100242.77;105542;1260;66720;-71
2023/02/14 04:11:45;;;;;;;4.80;4.30;;;;;;;3.39;74.45;100247.41;105546;1253;60436;-71
2023/02/14 04:14:12;;;;;;;5.00;3.70;;;;;;;3.37;74.55;100247.16;105491;1253;65456;-71
2023/02/14 04:19:25;;;;;;;8.00;6.30;;;;;;;3.30;74.73;100245.96;105719;1254;60408;-71
2023/02/14 04:21:52;;;;;;;10.60;9.50;;;;;;;3.26;74.95;100253.83;105670;1254;66851;-71
2023/02/14 04:24:19;;;;;;;11.10;8.20;;;;;;;3.22;75.11;100250.04;105690;1259;60472;-71
2023/02/14 04:29:33;;;;;;;8.90;7.60;;;;;;;3.12;75.50;100247.77;105556;1257;60511;-70
2023/02/14 04:32:00;;;;;;;10.30;6.70;;;;;;;3.10;75.58;100245.98;105648;1257;60481;-71
2023/02/14 04:34:27;;;;;;;10.10;7.60;;;;;;;3.09;75.78;100238.90;105686;1253;66760;-71
2023/02/14 04:36:54;;;;;;;7.40;6.50;;;;;;;3.07;75.90;100233.76;105732;1253;60544;-73
2023/02/14 04:39:20;;;;;;;11.10;9.20;;;;;;;3.04;76.16;100226.95;105657;1258;64617;-71
2023/02/14 04:41:47;;;;;;;10.00;8.30;;;;;;;3.00;76.28;100229.94;105661;1253;60469;-70
2023/02/14 04:44:14;;;;;;;8.10;7.10;;;;;;;2.98;76.48;100231.44;105886;1254;60471;-71
2023/02/14 04:46:41;;;;;;;7.50;6.70;;;;;;;2.98;76.58;100236.30;105712;1259;66585;-70
2023/02/14 04:49:08;;;;;;;6.90;5.00;;;;;;;2.98;76.77;100235.81;105792;1257;60470;-71
2023/02/14 04:51:35;;;;;;;4.80;4.20;;;;;;;2.98;76.92;100238.05;105747;1253;65440;-71
2023/02/14 04:54:02;;;;;;;5.40;4.90;;;;;;;2.98;77.04;100238.06;105644;1254;60480;-71
2023/02/14 04:56:29;;;;;;;6.30;5.30;;;;;;;2.96;77.16;100240.57;105673;1254;60438;-71
2023/02/14 04:58:56;;;;;;;6.50;4.60;;;;;;;2.96;77.36;100236.91;105805;1253;66664;-71
2023/02/14 05:01:23;;;;;;;6.70;5.30;;;;;;;2.97;77.52;100232.38;105693;1253;60542;-72
2023/02/14 05:03:50;;;;;;;5.80;4.90;;;;;;;2.97;77.61;100234.09;105806;1254;64539;-70
2023/02/14 05:06:17;;;;;;;4.50;3.80;;;;;;;2.97;77.79;100241.77;105844;1253;60427;-70
2023/02/14 05:08:43;;;;;;;4.50;4.00;;;;;;;2.98;77.90;100244.33;105745;1253;60426;-71
2023/02/14 05:11:11;;;;;;;5.50;4.30;;;;;;;2.99;77.99;100248.27;105866;1257;66606;-71
2023/02/14 05:13:38;;;;;;;5.20;4.20;;;;;;;3.00;78.01;100248.38;105744;1253;60476;-72
2023/02/14 05:16:07;;;;;;;5.40;4.20;;;;;;;3.00;78.19;100251.69;105980;1254;65634;-71
2023/02/14 05:18:34;;;;;;;4.80;4.30;;;;;;;3.01;78.29;100255.30;105769;1253;60500;-71
2023/02/14 05:21:01;;;;;;;5.80;4.40;;;;;;;3.02;78.44;100256.14;105631;1253;60530;-70
2023/02/14 05:23:29;;;;;;;5.60;4.50;;;;;;;3.02;78.54;100260.65;105815;1258;66668;-70
2023/02/14 05:25:55;;;;;;;4.70;4.00;;;;;;;3.03;78.61;100255.90;105558;1253;60487;-71
2023/02/14 05:28:23;;;;;;;5.30;4.50;;;;;;;3.03;78.63;100252.05;106564;1253;65347;-70
2023/02/14 05:30:50;;;;;;;6.00;4.40;;;;;;;3.04;78.71;100254.45;106356;1258;60355;-72
2023/02/14 05:33:19;;;;;;;5.10;4.10;;;;;;;3.05;78.73;100258.73;106653;1253;60360;-71
2023/02/14 05:35:46;;;;;;;6.20;5.60;;;;;;;3.06;78.76;100260.62;105785;1258;66631;-71
2023/02/14 05:38:13;;;;;;;7.80;6.90;;;;;;;3.07;78.77;100264.23;105665;1253;60381;-70
2023/02/14 05:40:40;;;;;;;7.50;5.90;;;;;;;3.08;78.84;100264.67;105705;1253;65303;-71
2023/02/14 05:43:07;;;;;;;6.20;5.60;;;;;;;3.09;78.88;100266.20;105657;1258;60429;-71
2023/02/14 05:45:37;;;;;;;5.80;5.00;;;;;;;3.09;78.86;100269.85;105458;1254;60519;-71
2023/02/14 05:48:05;;;;;;;8.10;7.20;;;;;;;3.09;79.04;100274.21;105620;1257;66453;-71
2023/02/14 05:50:32;;;;;;;8.10;6.70;;;;;;;3.10;79.01;100276.77;105594;1257;60500;-71
2023/02/14 05:52:59;;;;;;;6.50;5.50;;;;;;;3.12;79.02;100275.63;105742;1253;65701;-71
2023/02/14 05:55:26;;;;;;;6.20;4.70;;;;;;;3.13;79.09;100274.17;105542;1253;60622;-70
2023/02/14 05:57:53;;;;;;;6.00;4.40;;;;;;;3.14;79.11;100273.40;105598;1253;60596;-70
2023/02/14 06:00:22;;;;;;;5.00;4.30;;;;;;;3.16;79.08;100273.48;105610;1257;66358;-70
2023/02/14 06:02:50;;;;;;;6.70;4.90;;;;;;;3.17;79.09;100277.60;105726;1253;60449;-71
2023/02/14 06:05:18;;;;;;;6.50;4.70;;;;;;;3.18;79.07;100280.33;105551;1254;64605;-70
2023/02/14 06:07:49;;;;;;;6.20;3.90;;;;;;;3.20;79.08;100277.82;105966;1260;60429;-70
2023/02/14 06:10:17;;;;;;;4.80;3.60;;;;;;;3.24;78.98;100282.34;105740;1253;60381;-69
2023/02/14 06:12:45;;;;;;;5.50;4.00;;;;;;;3.26;78.88;100278.55;106205;1253;65590;-73
2023/02/14 06:15:14;;;;;;;5.00;4.50;;;;;;;3.31;78.86;100278.31;105826;1258;59837;-71
2023/02/14 06:17:41;;;;;;;6.40;5.10;;;;;;;3.33;78.73;100274.87;105854;1254;65402;-71
2023/02/14 06:20:08;;;;;;;5.40;4.10;;;;;;;3.37;78.60;100274.69;105787;1254;60535;-70
2023/02/14 06:22:38;;;;;;;3.80;3.40;;;;;;;3.39;78.59;100273.89;106638;1257;60403;-70
2023/02/14 06:25:12;;;;;;;4.80;3.20;;;;;;;3.39;78.57;100269.87;105709;1253;65472;-70
2023/02/14 06:27:40;;;;;;;7.10;5.90;;;;;;;3.17;79.07;100271.85;105885;1253;60402;-69
2023/02/14 06:30:10;;;;;;;5.10;4.30;;;;;;;3.01;79.73;100276.00;105758;1253;65288;-71
2023/02/14 06:32:38;;;;;;;3.70;3.30;;;;;;;2.98;79.93;100277.70;105696;1253;60429;-70
2023/02/14 06:35:05;;;;;;;7.50;6.00;;;;;;;2.97;79.98;100280.39;105705;1253;60507;-69
2023/02/14 06:37:33;;;;;;;8.80;6.20;;;;;;;2.97;80.01;100287.14;105863;1253;65777;-70
2023/02/14 06:40:00;;;;;;;5.60;4.10;;;;;;;2.97;80.01;100296.34;105865;1257;60466;-71
2023/02/14 06:42:27;;;;;;;6.10;4.30;;;;;;;2.97;80.04;100298.42;105612;1256;65456;-70
2023/02/14 06:44:54;;;;;;;7.20;4.30;;;;;;;2.98;80.05;100298.05;105961;1253;60479;-70
2023/02/14 06:47:21;;;;;;;4.10;3.60;;;;;;;2.99;79.98;100297.66;105729;1253;60442;-72
2023/02/14 06:49:48;;;;;;;3.60;2.90;;;;;;;2.99;79.97;100300.08;105401;1256;66685;-71
2023/02/14 06:52:14;;;;;;;4.60;3.00;;;;;;;3.00;79.90;100306.85;105662;1257;60665;-70
2023/02/14 06:54:41;;;;;;;5.00;3.00;;;;;;;3.01;79.91;100305.94;105788;1254;65512;-71
2023/02/14 06:57:09;;;;;;;3.70;3.10;;;;;;;3.02;79.90;100303.05;105683;1254;60474;-70
2023/02/14 06:59:36;;;;;;;6.00;3.50;;;;;;;3.05;79.82;100303.63;105612;1253;60448;-71
2023/02/14 07:02:02;;;;;;;4.70;3.60;;;;;;;3.06;79.74;100302.88;105850;1257;66465;-71
2023/02/14 07:11:27;;;;;;;7.10;4.90;;;;;;;3.21;79.60;100303.01;102487;1297;599440;-70
2023/02/14 07:14:00;;;;;;;4.00;3.00;;;;;;;3.24;79.54;100303.33;104731;1274;59342;-72
2023/02/14 07:16:34;;;;;;;5.70;3.20;;;;;;;3.30;79.42;100310.73;104656;1267;59360;-71
2023/02/14 07:19:03;;;;;;;4.00;2.50;;;;;;;3.32;79.26;100309.37;105168;1269;64961;-70
2023/02/14 07:21:32;;;;;;;3.60;2.70;;;;;;;3.36;79.05;100310.76;104980;1272;59856;-71
2023/02/14 07:24:00;;;;;;;4.40;2.70;;;;;;;3.39;78.92;100311.83;105155;1257;186560;-71
2023/02/14 07:26:32;;;;;;;7.10;3.30;;;;;;;3.43;78.83;100314.23;105658;1257;59286;-71
2023/02/14 07:29:02;;;;;;;4.20;2.50;;;;;;;3.46;78.57;100314.58;105600;1256;59328;-70
2023/02/14 07:31:30;;;;;;;2.60;2.40;;;;;;;3.47;78.33;100314.39;105664;1262;65109;-70
2023/02/14 07:34:01;;;;;;;3.60;2.50;;;;;;;3.48;78.25;100316.61;105832;1258;60048;-70
2023/02/14 07:36:30;;;;;;;3.10;2.40;;;;;;;3.51;78.10;100318.89;105649;1256;65547;-69
2023/02/14 07:38:58;;;;;;;3.20;2.10;;;;;;;3.52;77.72;100319.17;105729;1256;59515;-70
2023/02/14 07:41:26;;;;;;;3.80;2.50;;;;;;;3.53;77.55;100316.69;105433;1256;59509;-70
2023/02/14 07:43:56;;;;;;;3.20;2.40;;;;;;;3.56;77.45;100324.55;105845;1256;66101;-70
2023/02/14 07:46:26;;;;;;;3.40;2.70;;;;;;;3.61;77.24;100326.73;105496;1262;59643;-69
2023/02/14 07:48:55;;;;;;;6.30;3.80;;;;;;;3.65;76.90;100323.38;105991;1256;65551;-71
2023/02/14 07:51:24;;;;;;;10.00;4.10;;;;;;;3.72;76.90;100323.02;105525;1260;60263;-70
2023/02/14 07:53:52;;;;;;;23.00;12.80;;;;;;;3.79;76.77;100316.73;105674;1255;59680;-70
2023/02/14 07:56:21;;;;;;;42.50;8.30;;;;;;;3.86;76.41;100322.30;105683;1259;66436;-69
2023/02/14 07:58:49;;;;;;;10.10;5.30;;;;;;;3.92;76.26;100317.61;106018;1259;60067;-69
2023/02/14 08:01:19;;;;;;;20.80;3.30;;;;;;;3.99;76.10;100310.76;105642;1257;65445;-70
2023/02/14 08:03:48;;;;;;;3.10;2.30;;;;;;;4.05;75.74;100313.92;105724;1260;59784;-70
2023/02/14 08:06:17;;;;;;;3.70;2.00;;;;;;;4.10;75.43;100319.27;105677;1261;59632;-70
2023/02/14 08:08:45;;;;;;;3.60;2.10;;;;;;;4.15;75.17;100319.02;105585;1256;65669;-70
2023/02/14 08:14:08;;;;;;;3.50;1.80;;;;;;;4.21;74.43;100320.23;105751;1256;65265;-70
2023/02/14 08:16:37;;;;;;;7.40;2.00;;;;;;;4.22;74.17;100320.70;105751;1259;59622;-70
2023/02/14 08:19:06;;;;;;;3.60;1.80;;;;;;;4.22;73.84;100322.45;106005;1256;59572;-70
2023/02/14 08:21:34;;;;;;;3.50;1.80;;;;;;;4.23;73.68;100323.25;105792;1257;65996;-70
2023/02/14 08:24:03;;;;;;;4.60;1.80;;;;;;;4.25;73.29;100328.41;105794;1259;59945;-70
2023/02/14 08:26:31;;;;;;;114.80;11.80;;;;;;;4.22;72.95;100321.73;105728;1259;65585;-70
2023/02/14 08:29:00;;;;;;;21.60;3.90;;;;;;;4.22;72.89;100327.11;105536;1261;59626;-70
2023/02/14 08:31:29;;;;;;;22.20;3.00;;;;;;;4.23;72.72;100330.92;105554;1256;60706;-71
2023/02/14 08:34:04;;;;;;;4.10;2.00;;;;;;;4.24;72.63;100336.29;105633;1256;64948;-72
2023/02/14 08:36:33;;;;;;;2.10;1.70;;;;;;;4.26;72.58;100338.27;105362;1257;60075;-73
2023/02/14 08:39:02;;;;;;;2.00;1.50;;;;;;;4.29;72.34;100338.13;105736;1256;64299;-77
2023/02/14 08:41:32;;;;;;;2.10;1.50;;;;;;;4.32;72.24;100337.08;105382;1260;59554;-77
2023/02/14 08:44:00;;;;;;;2.60;1.50;;;;;;;4.36;72.18;100337.75;105633;1257;59628;-74
2023/02/14 08:46:29;;;;;;;3.40;2.30;;;;;;;4.40;71.96;100338.05;105472;1257;66185;-74
2023/02/14 08:48:58;;;;;;;5.80;4.40;;;;;;;4.43;71.77;100335.09;105753;1256;59621;-71
2023/02/14 08:51:27;;;;;;;5.90;4.90;;;;;;;4.45;71.30;100333.73;105769;1256;65592;-75
2023/02/14 08:53:55;;;;;;;4.90;2.60;;;;;;;4.49;71.05;100334.54;105663;1257;59619;-73
2023/02/14 08:56:23;;;;;;;19.70;15.70;;;;;;;4.51;70.60;100326.92;105685;1256;59685;-71
2023/02/14 08:58:53;;;;;;;16.30;12.60;;;;;;;4.54;70.21;100326.10;105809;1255;65109;-72
2023/02/14 09:01:21;;;;;;;27.60;11.40;;;;;;;4.57;70.02;100335.67;105515;1256;59514;-76
2023/02/14 09:03:52;;;;;;;23.20;15.80;;;;;;;4.63;69.80;100340.77;105929;1256;65459;-70
2023/02/14 09:06:21;;;;;;;11.80;9.00;;;;;;;4.70;69.57;100340.58;105522;1256;59776;-72
2023/02/14 09:08:50;;;;;;;6.50;4.90;;;;;;;4.74;69.23;100343.66;105642;1256;59737;-69
2023/02/14 09:11:23;;;;;;;3.70;2.30;;;;;;;4.76;69.07;100345.30;105427;1262;65367;-70
2023/02/14 09:13:52;;;;;;;7.00;4.80;;;;;;;4.78;68.77;100346.89;105538;1262;59697;-70
2023/02/14 09:16:21;;;;;;;4.90;3.40;;;;;;;4.80;68.45;100343.98;105365;1256;64746;-71
2023/02/14 09:18:51;;;;;;;4.10;2.50;;;;;;;4.79;68.12;100345.59;105341;1256;59749;-71
2023/02/14 09:21:21;;;;;;;4.00;2.50;;;;;;;4.77;67.69;100348.57;105512;1255;59655;-74
2023/02/14 09:24:09;;;;;;;4.50;2.00;;;;;;;4.74;67.30;100347.16;105507;1256;66063;-73
2023/02/14 09:26:41;;;;;;;2.60;1.30;;;;;;;4.71;66.93;100348.70;105872;1256;60035;-72
2023/02/14 09:29:12;;;;;;;2.50;1.30;;;;;;;4.69;66.55;100353.68;107512;1255;64257;-73
2023/02/14 09:31:40;;;;;;;3.10;1.50;;;;;;;4.66;66.43;100354.06;106903;1256;59336;-71
2023/02/14 09:34:08;;;;;;;3.50;1.50;;;;;;;4.65;66.50;100346.95;105828;1257;59653;-77
2023/02/14 09:36:37;;;;;;;2.10;1.50;;;;;;;4.65;66.45;100350.45;105773;1257;65714;-74
2023/02/14 09:39:05;;;;;;;9.60;1.70;;;;;;;4.65;66.24;100349.08;106055;1257;60019;-71
2023/02/14 09:41:45;;;;;;;4.80;1.90;;;;;;;4.63;66.09;100353.84;105672;1255;64052;-73
2023/02/14 09:44:28;;;;;;;4.60;1.20;;;;;;;4.61;65.91;100352.73;105533;1262;59712;-73
2023/02/14 09:47:06;;;;;;;5.10;1.50;;;;;;;4.59;65.62;100351.27;105604;1257;59619;-72
2023/02/14 09:49:36;;;;;;;3.80;1.20;;;;;;;4.58;65.44;100346.11;105521;1257;65865;-73
2023/02/14 09:52:06;;;;;;;5.50;1.20;;;;;;;4.59;65.36;100348.67;105621;1259;59634;-74
2023/02/14 09:54:35;;;;;;;4.50;1.60;;;;;;;4.61;65.26;100352.21;105545;1256;65530;-73
2023/02/14 09:57:16;;;;;;;7.50;1.60;;;;;;;4.71;64.88;100350.09;105328;1262;59577;-73
2023/02/14 09:59:51;;;;;;;4.60;1.40;;;;;;;4.72;64.43;100348.66;105349;1262;59520;-73
2023/02/14 10:02:27;;;;;;;4.60;1.70;;;;;;;4.75;64.12;100345.83;105508;1257;65009;-73
2023/02/14 10:05:14;;;;;;;3.40;1.70;;;;;;;4.65;64.14;100339.99;105643;1256;60013;-73
2023/02/14 10:08:19;;;;;;;6.80;1.60;;;;;;;4.67;64.06;100336.92;105361;1256;65531;-74
2023/02/14 10:11:19;;;;;;;3.20;1.10;;;;;;;4.69;63.96;100327.36;105540;1262;59594;-75
2023/02/14 10:13:50;;;;;;;10.90;1.20;;;;;;;4.73;63.83;100319.65;105622;1258;59560;-73
2023/02/14 10:16:28;;;;;;;4.20;0.90;;;;;;;4.76;63.17;100319.84;105649;1256;65871;-73
2023/02/14 10:19:02;;;;;;;5.10;1.20;;;;;;;4.76;62.66;100320.50;105304;1256;59871;-75
2023/02/14 10:21:34;;;;;;;2.40;0.90;;;;;;;4.78;62.75;100311.64;105584;1256;65540;-72
2023/02/14 10:24:13;;;;;;;3.40;0.70;;;;;;;4.85;62.76;100310.20;105576;1259;59648;-77
2023/02/14 10:26:41;;;;;;;4.60;1.00;;;;;;;4.90;62.61;100304.54;105491;1262;59682;-74
2023/02/14 10:29:13;;;;;;;2.10;1.10;;;;;;;4.92;62.46;100305.29;105649;1256;66110;-72
2023/02/14 10:31:56;;;;;;;3.70;1.10;;;;;;;4.92;62.33;100299.70;105728;1257;59607;-72
2023/02/14 10:34:49;;;;;;;5.60;1.60;;;;;;;4.89;61.99;100299.51;105725;1256;65500;-75
2023/02/14 10:37:25;;;;;;;6.00;1.30;;;;;;;4.87;62.18;100299.81;105481;1255;59544;-74
2023/02/14 10:40:19;;;;;;;2.60;1.10;;;;;;;4.90;62.47;100299.10;105627;1256;59664;-76
2023/02/14 10:42:51;;;;;;;3.30;1.30;;;;;;;4.91;62.40;100302.20;105759;1259;65731;-77
2023/02/14 10:45:28;;;;;;;2.70;1.40;;;;;;;4.89;62.27;100301.48;105613;1259;59974;-74
2023/02/14 10:48:15;;;;;;;2.20;1.40;;;;;;;4.84;62.33;100299.99;105679;1257;65763;-76
2023/02/14 10:51:15;;;;;;;2.90;1.50;;;;;;;4.82;62.40;100304.64;105420;1262;59750;-74
2023/02/14 10:53:52;;;;;;;3.40;1.30;;;;;;;4.79;62.33;100307.27;105569;1256;59645;-75
2023/02/14 10:56:42;;;;;;;3.40;1.10;;;;;;;4.74;62.38;100313.12;105589;1256;64677;-75
2023/02/14 10:59:20;;;;;;;2.70;1.30;;;;;;;4.68;62.25;100317.65;105706;1257;59825;-77
2023/02/14 11:01:50;;;;;;;2.40;1.30;;;;;;;4.63;62.31;100319.15;105677;1259;64508;-75
2023/02/14 11:04:46;;;;;;;3.10;1.30;;;;;;;4.57;62.33;100315.97;105669;1257;59666;-75
2023/02/14 11:07:28;;;;;;;3.10;1.20;;;;;;;4.49;62.36;100319.04;105658;1256;59720;-74
2023/02/14 11:09:58;;;;;;;3.80;1.40;;;;;;;4.43;62.61;100320.41;105467;1255;65975;-75
2023/02/14 11:12:34;;;;;;;4.60;1.40;;;;;;;4.40;62.72;100321.63;105624;1255;60031;-74
2023/02/14 11:15:12;;;;;;;3.90;1.50;;;;;;;4.39;62.71;100322.92;105283;1257;64034;-78
2023/02/14 11:17:42;;;;;;;4.60;1.60;;;;;;;4.35;62.45;100321.23;105480;1257;59747;-73
2023/02/14 11:20:17;;;;;;;1.90;1.20;;;;;;;4.30;62.51;100319.57;105515;1256;60675;-73
2023/02/14 11:22:50;;;;;;;3.10;1.30;;;;;;;4.27;62.46;100314.87;105624;1258;66010;-78
2023/02/14 11:33:36;;;;;;;2.90;1.30;;;;;;;4.29;62.50;100307.25;102551;1295;604976;-72
2023/02/14 11:36:04;;;;;;;2.90;1.30;;;;;;;4.26;62.42;100307.06;104882;1272;59238;-71
2023/02/14 11:38:34;;;;;;;2.60;1.10;;;;;;;4.27;62.39;100308.94;105037;1267;59267;-72
2023/02/14 11:41:01;;;;;;;3.00;1.10;;;;;;;4.28;62.30;100307.65;105003;1268;65137;-72
2023/02/14 11:43:39;;;;;;;2.90;1.30;;;;;;;4.28;62.04;100308.02;104838;1272;59862;-72
2023/02/14 11:46:19;;;;;;;3.40;1.30;;;;;;;4.23;61.74;100308.95;104929;1271;149412;-72
2023/02/14 11:49:03;;;;;;;3.30;1.40;;;;;;;4.18;61.71;100308.02;105098;1269;59742;-72
2023/02/14 11:51:32;;;;;;;4.10;1.20;;;;;;;4.13;61.73;100304.81;105103;1264;59390;-72
2023/02/14 11:54:03;;;;;;;2.30;1.40;;;;;;;4.12;62.00;100309.22;105311;1264;65161;-72
2023/02/14 11:57:00;;;;;;;5.90;1.30;;;;;;;4.12;62.22;100315.52;104958;1270;59995;-72
2023/02/14 11:59:40;;;;;;;3.50;1.50;;;;;;;4.10;62.30;100326.58;104966;1269;65433;-73
2023/02/14 12:02:20;;;;;;;4.60;1.50;;;;;;;4.04;62.59;100327.08;105780;1264;59750;-73
2023/02/14 12:04:48;;;;;;;2.90;1.30;;;;;;;3.97;63.00;100331.11;105411;1265;59551;-71
2023/02/14 12:07:25;;;;;;;2.20;1.30;;;;;;;3.94;63.46;100324.80;105376;1261;65604;-74
2023/02/14 12:10:04;;;;;;;2.80;1.60;;;;;;;3.94;63.81;100316.61;105302;1266;59828;-72
2023/02/14 12:12:32;;;;;;;2.70;1.20;;;;;;;3.94;64.23;100317.32;105090;1266;65768;-73
2023/02/14 12:15:22;;;;;;;4.10;1.70;;;;;;;4.01;64.71;100317.66;105105;1267;59547;-71
2023/02/14 12:17:52;;;;;;;2.50;1.30;;;;;;;4.18;65.25;100314.98;105185;1263;59740;-72